Time;durP1;ratioP1;P1;durP2;ratioP2;P2;SDS_P1;SDS_P2;PMS_P1;PMS_P2;Temp;Humidity;BMP_temperature;BMP_pressure;BME280_temperature;BME280_humidity;BME280_pressure;Samples;Min_cycle;Max_cycle;Signal;HPM_P1;HPM_P2
2022/02/28 00:00:20;;;;;;;7.10;4.03;;;;;;;3.39;65.20;102314.75;672042;29;4355;-80
2022/02/28 00:00:47;;;;;;;6.93;4.05;;;;;;;3.39;65.46;102337.13;669703;29;1575;-80
2022/02/28 00:01:15;;;;;;;7.78;3.80;;;;;;;3.30;65.08;102318.56;673548;29;1471;-80
2022/02/28 00:01:38;;;;;;;6.43;3.70;;;;;;;3.25;65.28;102310.56;671939;29;4662;-80
2022/02/28 00:02:02;;;;;;;6.70;3.90;;;;;;;3.22;66.40;102331.09;678578;29;1383;-80
2022/02/28 00:02:22;;;;;;;7.03;3.78;;;;;;;3.29;65.26;102315.06;675466;29;1349;-80
2022/02/28 00:02:43;;;;;;;6.77;3.53;;;;;;;3.47;64.36;102319.44;676201;29;1972;-80
2022/02/28 00:03:04;;;;;;;8.23;4.10;;;;;;;3.48;65.92;102304.00;676512;29;4363;-80
2022/02/28 00:03:24;;;;;;;9.23;4.00;;;;;;;3.46;65.98;102327.97;670104;29;1258;-80
2022/02/28 00:03:45;;;;;;;7.13;3.67;;;;;;;3.54;64.82;102348.25;674045;29;1022;-79
2022/02/28 00:04:05;;;;;;;6.13;3.90;;;;;;;3.46;66.15;102330.56;677585;29;1524;-80
2022/02/28 00:04:28;;;;;;;6.47;4.15;;;;;;;3.39;66.54;102307.00;673007;29;2428;-80
2022/02/28 00:04:49;;;;;;;7.55;3.90;;;;;;;3.32;66.48;102304.88;677663;28;2538;-80
2022/02/28 00:05:10;;;;;;;6.60;3.70;;;;;;;3.35;65.48;102346.44;671724;29;1456;-80
2022/02/28 00:05:33;;;;;;;6.65;3.67;;;;;;;3.37;64.91;102313.78;677993;29;1473;-79
2022/02/28 00:05:56;;;;;;;7.20;3.70;;;;;;;3.45;65.26;102318.44;675526;29;3664;-80
2022/02/28 00:06:17;;;;;;;6.82;4.10;;;;;;;3.41;65.79;102310.53;674351;29;4295;-79
2022/02/28 00:06:40;;;;;;;7.77;4.50;;;;;;;3.39;65.66;102319.03;677772;29;2599;-80
2022/02/28 00:07:01;;;;;;;7.30;4.30;;;;;;;3.37;64.78;102315.50;676541;29;1291;-80
2022/02/28 00:07:21;;;;;;;6.85;3.70;;;;;;;3.35;65.91;102336.09;676591;29;1479;-79
2022/02/28 00:07:42;;;;;;;6.50;3.70;;;;;;;3.49;64.56;102310.03;677184;29;1184;-79
2022/02/28 00:08:03;;;;;;;6.87;4.03;;;;;;;3.56;63.62;102312.16;675735;29;1203;-79
2022/02/28 00:08:24;;;;;;;7.30;4.13;;;;;;;3.55;64.22;102311.25;676442;29;2693;-79
2022/02/28 00:08:45;;;;;;;7.30;4.13;;;;;;;3.52;64.75;102336.06;674365;29;3489;-79
2022/02/28 00:09:06;;;;;;;6.68;3.90;;;;;;;3.56;63.75;102320.78;673583;29;4328;-80
2022/02/28 00:09:30;;;;;;;6.90;4.07;;;;;;;3.49;64.09;102326.47;676390;29;2158;-80
2022/02/28 00:09:50;;;;;;;7.68;4.00;;;;;;;3.46;64.64;102308.22;674134;29;2043;-80
2022/02/28 00:10:11;;;;;;;8.43;4.00;;;;;;;3.41;65.08;102333.81;675305;29;1661;-80
2022/02/28 00:10:35;;;;;;;8.27;4.30;;;;;;;3.44;65.02;102321.88;675330;29;1281;-80
2022/02/28 00:10:55;;;;;;;8.13;4.40;;;;;;;3.40;65.69;102308.75;671629;29;1637;-80
2022/02/28 00:11:16;;;;;;;7.28;4.40;;;;;;;3.38;65.62;102307.81;676869;29;1231;-80
2022/02/28 00:11:37;;;;;;;6.50;3.97;;;;;;;3.47;64.50;102329.78;680859;28;1392;-81
2022/02/28 00:11:57;;;;;;;7.10;3.65;;;;;;;3.46;64.03;102315.06;680753;28;1251;-80
2022/02/28 00:12:18;;;;;;;8.30;3.90;;;;;;;3.49;64.16;102347.16;675325;29;4315;-79
2022/02/28 00:12:42;;;;;;;6.65;3.70;;;;;;;3.55;64.13;102307.78;673121;29;1315;-82
2022/02/28 00:13:03;;;;;;;6.95;3.65;;;;;;;3.56;64.12;102306.97;672929;29;1274;-80
2022/02/28 00:13:24;;;;;;;6.78;3.90;;;;;;;3.63;63.67;102305.56;678174;28;2279;-81
2022/02/28 00:13:45;;;;;;;6.95;3.88;;;;;;;3.64;64.07;102305.66;678005;29;1300;-79
2022/02/28 00:14:06;;;;;;;7.20;4.30;;;;;;;3.58;64.36;102323.44;677897;29;1418;-80
2022/02/28 00:14:26;;;;;;;6.18;3.83;;;;;;;3.62;63.50;102322.78;678967;29;1203;-81
2022/02/28 00:14:47;;;;;;;7.05;4.00;;;;;;;3.68;63.55;102310.19;675545;29;1344;-79
2022/02/28 00:15:07;;;;;;;6.87;3.87;;;;;;;3.61;64.35;102326.16;680117;28;4495;-81
2022/02/28 00:15:33;;;;;;;6.63;3.70;;;;;;;3.60;64.24;102350.28;678754;29;1213;-80
2022/02/28 00:15:56;;;;;;;6.35;3.85;;;;;;;3.58;64.16;102332.06;677872;29;3251;-82
2022/02/28 00:16:20;;;;;;;6.43;3.83;;;;;;;3.54;64.36;102298.22;678704;29;1375;-81
2022/02/28 00:16:41;;;;;;;6.43;3.67;;;;;;;3.49;65.07;102299.69;678209;28;3191;-82
2022/02/28 00:17:02;;;;;;;6.72;3.90;;;;;;;3.53;64.45;102315.47;678533;29;1379;-82
2022/02/28 00:17:23;;;;;;;6.97;3.95;;;;;;;3.48;64.22;102322.09;678873;29;1092;-81
2022/02/28 00:17:44;;;;;;;7.40;4.07;;;;;;;3.55;64.47;102325.88;678944;29;1307;-80
2022/02/28 00:18:05;;;;;;;7.05;4.10;;;;;;;3.57;63.75;102314.81;677057;29;4360;-81
2022/02/28 00:18:25;;;;;;;7.10;3.88;;;;;;;3.56;64.37;102315.59;677263;29;970;-81
2022/02/28 00:18:45;;;;;;;6.60;3.97;;;;;;;3.49;64.32;102308.34;675849;29;1021;-82
2022/02/28 00:19:16;;;;;;;7.70;4.00;;;;;;;3.46;64.25;102330.56;676282;29;2333;-80
2022/02/28 00:19:37;;;;;;;6.15;3.97;;;;;;;3.52;64.34;102325.72;675389;29;1338;-81
2022/02/28 00:20:03;;;;;;;6.63;3.90;;;;;;;3.55;63.84;102342.28;673843;29;1540;-81
2022/02/28 00:20:24;;;;;;;8.32;4.32;;;;;;;3.53;64.00;102296.44;673911;29;1439;-81
2022/02/28 00:20:45;;;;;;;7.47;4.00;;;;;;;3.58;63.58;102310.50;676243;29;1301;-81
2022/02/28 00:21:06;;;;;;;6.63;3.90;;;;;;;3.53;64.54;102307.69;674981;29;4344;-81
2022/02/28 00:21:27;;;;;;;7.35;4.10;;;;;;;3.52;64.71;102330.91;675647;29;1261;-81
2022/02/28 00:21:47;;;;;;;6.67;4.20;;;;;;;3.47;64.72;102351.34;677315;29;1327;-81
2022/02/28 00:22:08;;;;;;;7.10;4.10;;;;;;;3.58;64.07;102315.69;675309;29;948;-81
2022/02/28 00:22:31;;;;;;;7.82;4.53;;;;;;;3.53;65.22;102327.47;672959;29;941;-82
2022/02/28 00:22:55;;;;;;;8.13;4.43;;;;;;;3.48;64.54;102316.03;676379;29;1903;-79
2022/02/28 00:23:16;;;;;;;7.00;4.00;;;;;;;3.40;64.58;102306.16;675337;29;3959;-82
2022/02/28 00:23:36;;;;;;;7.00;3.80;;;;;;;3.36;64.82;102304.25;675996;29;1189;-82
2022/02/28 00:23:57;;;;;;;7.47;4.10;;;;;;;3.34;65.32;102343.78;678763;29;1801;-81
2022/02/28 00:24:17;;;;;;;6.78;4.05;;;;;;;3.32;66.00;102330.75;676317;29;4334;-82
2022/02/28 00:24:38;;;;;;;6.60;4.10;;;;;;;3.37;65.59;102298.25;676200;29;1040;-79
2022/02/28 00:25:03;;;;;;;6.95;4.07;;;;;;;3.41;64.78;102310.53;673344;29;1323;-79
2022/02/28 00:25:24;;;;;;;6.57;3.70;;;;;;;3.36;66.01;102314.56;673383;29;1312;-79
2022/02/28 00:25:44;;;;;;;6.78;3.80;;;;;;;3.32;66.37;102317.81;673745;29;1321;-79
2022/02/28 00:26:05;;;;;;;7.05;4.03;;;;;;;3.28;66.12;102320.16;671799;29;1353;-79
2022/02/28 00:26:25;;;;;;;7.27;4.03;;;;;;;3.28;65.84;102323.66;675716;29;3518;-79
2022/02/28 00:26:46;;;;;;;6.97;4.20;;;;;;;3.41;64.92;102309.66;673207;29;1399;-82
2022/02/28 00:27:06;;;;;;;6.67;4.03;;;;;;;3.41;65.46;102307.94;674000;29;4335;-81
2022/02/28 00:27:29;;;;;;;6.43;4.30;;;;;;;3.49;64.95;102315.22;674407;29;1159;-81
2022/02/28 00:27:50;;;;;;;6.57;4.00;;;;;;;3.43;64.46;102320.09;675922;29;1253;-82
2022/02/28 00:28:11;;;;;;;6.90;3.90;;;;;;;3.47;65.14;102327.19;679201;29;1546;-81
2022/02/28 00:28:32;;;;;;;7.35;4.10;;;;;;;3.41;65.43;102328.63;675813;29;1312;-82
2022/02/28 00:28:52;;;;;;;6.87;4.20;;;;;;;3.41;65.73;102330.34;679138;29;1531;-81
2022/02/28 00:29:13;;;;;;;7.13;4.15;;;;;;;3.40;64.92;102325.97;679005;29;2320;-81
2022/02/28 00:29:33;;;;;;;7.73;4.20;;;;;;;3.45;64.49;102324.53;673582;29;2456;-81
2022/02/28 00:29:54;;;;;;;7.10;4.10;;;;;;;3.47;64.56;102311.66;676307;29;1490;-81
2022/02/28 00:30:14;;;;;;;6.28;3.78;;;;;;;3.49;64.59;102336.81;677963;29;4331;-81
2022/02/28 00:30:39;;;;;;;5.85;3.70;;;;;;;3.51;63.80;102309.31;676302;29;1432;-79
2022/02/28 00:31:02;;;;;;;8.05;4.35;;;;;;;3.50;63.92;102311.81;675885;29;1771;-81
2022/02/28 00:31:22;;;;;;;7.57;4.18;;;;;;;3.43;64.72;102320.97;676172;29;1580;-81
2022/02/28 00:32:01;;;;;;;7.78;4.40;;;;;;;3.30;65.99;102345.28;681329;29;1287;-81
2022/02/28 00:32:22;;;;;;;7.20;3.83;;;;;;;3.22;66.31;102331.97;678520;29;1242;-79
2022/02/28 00:32:43;;;;;;;6.70;3.80;;;;;;;3.17;65.69;102317.03;678568;29;1225;-79
2022/02/28 00:33:05;;;;;;;7.10;4.30;;;;;;;3.19;65.08;102311.13;677427;29;4365;-79
2022/02/28 00:33:28;;;;;;;6.72;4.20;;;;;;;3.14;66.20;102317.75;676601;29;3904;-80
2022/02/28 00:33:48;;;;;;;6.80;4.40;;;;;;;3.19;65.93;102316.31;676121;29;1588;-80
2022/02/28 00:34:12;;;;;;;6.45;4.10;;;;;;;3.28;65.45;102331.41;669851;29;2264;-78
2022/02/28 00:34:32;;;;;;;6.65;3.88;;;;;;;3.31;65.99;102316.06;670849;29;1887;-79
2022/02/28 00:34:56;;;;;;;6.53;4.17;;;;;;;3.36;64.84;102317.16;671439;29;1305;-79
2022/02/28 00:35:18;;;;;;;6.88;4.20;;;;;;;3.32;64.81;102316.94;671679;29;1242;-80
2022/02/28 00:35:40;;;;;;;7.80;4.05;;;;;;;3.29;66.39;102312.50;674980;29;1354;-79
2022/02/28 00:36:00;;;;;;;6.85;3.83;;;;;;;3.31;65.31;102360.00;677915;29;1358;-79
2022/02/28 00:36:21;;;;;;;7.45;4.10;;;;;;;3.27;65.96;102315.81;680657;28;4326;-79
2022/02/28 00:36:41;;;;;;;7.37;4.40;;;;;;;3.24;65.50;102326.91;683381;28;3359;-80
2022/02/28 00:37:02;;;;;;;6.73;4.33;;;;;;;3.26;65.39;102335.59;681774;28;1642;-80
2022/02/28 00:37:23;;;;;;;6.97;4.10;;;;;;;3.30;65.01;102319.44;680432;29;1687;-79
2022/02/28 00:37:49;;;;;;;6.63;3.93;;;;;;;3.30;64.88;102329.78;681227;29;1325;-79
2022/02/28 00:38:10;;;;;;;7.45;4.00;;;;;;;3.28;65.47;102320.16;679759;28;1759;-79
2022/02/28 00:38:32;;;;;;;7.93;4.10;;;;;;;3.22;66.95;102346.59;678345;29;1460;-79
2022/02/28 00:38:55;;;;;;;6.60;4.00;;;;;;;3.21;65.33;102347.41;678995;29;1106;-79
2022/02/28 00:39:16;;;;;;;6.70;4.03;;;;;;;3.15;65.15;102309.19;672945;29;4374;-79
2022/02/28 00:39:37;;;;;;;6.25;4.00;;;;;;;3.20;64.89;102337.88;676017;29;1423;-79
2022/02/28 00:39:57;;;;;;;7.18;4.07;;;;;;;3.32;64.66;102335.03;676086;29;1476;-79
2022/02/28 00:40:23;;;;;;;7.22;3.90;;;;;;;3.35;65.03;102318.00;678253;29;1933;-81
2022/02/28 00:40:45;;;;;;;7.38;4.00;;;;;;;3.41;64.00;102318.28;675111;29;1543;-79
2022/02/28 00:41:05;;;;;;;7.00;3.80;;;;;;;3.52;63.79;102316.25;679369;29;1653;-79
2022/02/28 00:41:26;;;;;;;7.78;3.97;;;;;;;3.53;63.60;102312.88;677817;29;1541;-79
2022/02/28 00:41:47;;;;;;;6.97;4.00;;;;;;;3.49;64.08;102334.22;676339;29;1603;-80
2022/02/28 00:42:10;;;;;;;6.87;4.03;;;;;;;3.46;64.25;102310.78;676019;29;4565;-79
2022/02/28 00:42:30;;;;;;;7.14;4.04;;;;;;;3.44;64.33;102314.97;674279;29;1233;-79
2022/02/28 00:42:54;;;;;;;7.13;4.55;;;;;;;3.46;63.88;102352.16;672813;29;1910;-79
2022/02/28 00:43:24;;;;;;;6.65;3.88;;;;;;;3.47;64.55;102322.00;677768;29;1185;-80
2022/02/28 00:43:44;;;;;;;7.72;4.30;;;;;;;3.43;64.87;102326.13;677739;29;3790;-79
2022/02/28 00:44:05;;;;;;;7.97;4.13;;;;;;;3.34;65.27;102321.38;679411;28;1398;-80
2022/02/28 00:44:28;;;;;;;5.97;3.60;;;;;;;3.40;63.70;102357.88;681571;28;1256;-79
2022/02/28 00:44:49;;;;;;;6.37;3.80;;;;;;;3.32;66.29;102322.09;670219;29;1402;-79
2022/02/28 00:45:12;;;;;;;7.15;4.13;;;;;;;3.29;65.42;102319.38;677004;29;4296;-79
2022/02/28 00:45:36;;;;;;;7.72;4.25;;;;;;;3.30;65.04;102339.25;673997;29;1812;-81
2022/02/28 00:45:57;;;;;;;8.35;4.70;;;;;;;3.27;65.30;102332.22;674762;29;3209;-79
2022/02/28 00:46:17;;;;;;;7.03;4.00;;;;;;;3.35;64.55;102312.81;677625;29;3825;-80
2022/02/28 00:46:40;;;;;;;6.68;3.80;;;;;;;3.38;64.31;102328.50;678030;29;1695;-79
2022/02/28 00:47:01;;;;;;;7.25;4.18;;;;;;;3.52;64.37;102318.84;673383;29;1392;-79
2022/02/28 00:47:21;;;;;;;8.13;3.92;;;;;;;3.60;63.29;102306.31;672036;29;1451;-80
2022/02/28 00:47:42;;;;;;;6.90;3.90;;;;;;;3.55;64.48;102307.78;669916;29;1041;-79
2022/02/28 00:48:03;;;;;;;6.43;3.72;;;;;;;3.48;63.34;102311.75;669086;29;1238;-80
2022/02/28 00:48:24;;;;;;;6.30;3.85;;;;;;;3.48;63.71;102318.63;670700;29;5768;-81
2022/02/28 00:48:45;;;;;;;6.95;3.95;;;;;;;3.49;63.53;102322.97;676410;29;1507;-80
2022/02/28 00:49:06;;;;;;;6.97;3.70;;;;;;;3.50;63.24;102309.22;673494;29;1382;-80
2022/02/28 00:49:27;;;;;;;7.53;3.97;;;;;;;3.48;63.80;102323.78;673899;29;1430;-79
2022/02/28 00:49:52;;;;;;;7.88;4.05;;;;;;;3.45;63.44;102323.63;672803;29;2184;-80
2022/02/28 00:50:13;;;;;;;6.88;3.72;;;;;;;3.45;64.07;102328.78;675875;29;1705;-79
2022/02/28 00:50:33;;;;;;;8.23;4.00;;;;;;;3.49;63.69;102304.88;677297;29;1926;-78
2022/02/28 00:50:56;;;;;;;7.93;4.18;;;;;;;3.53;64.33;102306.78;677097;29;1433;-79
2022/02/28 00:51:16;;;;;;;6.87;4.07;;;;;;;3.55;64.70;102325.88;675128;29;4381;-80
2022/02/28 00:51:36;;;;;;;6.88;4.10;;;;;;;3.55;63.75;102331.06;679815;29;1530;-79
2022/02/28 00:51:57;;;;;;;6.87;4.00;;;;;;;3.57;63.10;102306.13;678617;29;1322;-80
2022/02/28 00:52:18;;;;;;;7.93;4.32;;;;;;;3.50;63.68;102327.34;677614;29;1435;-80
2022/02/28 00:52:40;;;;;;;7.20;4.17;;;;;;;3.43;64.11;102314.91;672401;29;1431;-80
2022/02/28 00:53:01;;;;;;;7.65;4.15;;;;;;;3.35;64.98;102302.50;669777;29;1270;-78
2022/02/28 00:53:22;;;;;;;6.82;4.10;;;;;;;3.45;63.32;102302.94;672157;29;2205;-79
2022/02/28 00:53:42;;;;;;;7.15;3.90;;;;;;;3.47;64.30;102291.84;673620;29;3333;-79
2022/02/28 00:54:03;;;;;;;9.32;4.50;;;;;;;3.45;63.42;102300.34;673819;29;4380;-79
2022/02/28 00:54:25;;;;;;;7.82;4.05;;;;;;;3.35;64.21;102318.00;672294;29;1299;-79
2022/02/28 00:54:53;;;;;;;7.28;4.20;;;;;;;3.35;63.73;102312.81;671299;29;1184;-79
2022/02/28 00:55:14;;;;;;;6.70;3.83;;;;;;;3.45;62.98;102310.69;673929;29;1352;-79
2022/02/28 00:55:35;;;;;;;6.45;4.00;;;;;;;3.52;63.39;102311.09;673319;29;1383;-78
2022/02/28 00:55:55;;;;;;;6.07;4.07;;;;;;;3.53;63.43;102327.47;675428;29;1229;-78
2022/02/28 00:56:16;;;;;;;6.40;4.03;;;;;;;3.58;62.84;102336.38;675643;29;1959;-79
2022/02/28 00:56:36;;;;;;;6.47;4.17;;;;;;;3.58;63.20;102307.91;670545;29;1347;-79
2022/02/28 00:56:57;;;;;;;6.63;4.10;;;;;;;3.64;62.23;102321.19;673042;29;1237;-79
2022/02/28 00:57:18;;;;;;;6.93;4.00;;;;;;;3.68;62.72;102325.69;675302;29;4337;-80
2022/02/28 00:57:39;;;;;;;8.38;4.40;;;;;;;3.67;62.68;102318.75;673952;29;1382;-79
2022/02/28 00:58:00;;;;;;;7.65;4.22;;;;;;;3.58;63.39;102303.63;672480;29;1426;-79
2022/02/28 00:58:32;;;;;;;7.40;4.03;;;;;;;3.61;62.54;102320.13;672604;29;1476;-79
2022/02/28 00:58:53;;;;;;;7.05;4.25;;;;;;;3.57;62.77;102316.47;673132;29;1361;-79
2022/02/28 00:59:13;;;;;;;6.13;4.00;;;;;;;3.61;63.90;102314.94;674110;29;1885;-80
2022/02/28 00:59:34;;;;;;;6.95;4.00;;;;;;;3.56;63.62;102306.97;676019;29;4154;-79
2022/02/28 00:59:54;;;;;;;6.70;3.90;;;;;;;3.50;64.21;102306.66;676062;29;1672;-79
2022/02/28 01:00:19;;;;;;;7.30;4.10;;;;;;;3.53;63.20;102317.13;672614;29;4317;-79
2022/02/28 01:00:40;;;;;;;6.22;3.90;;;;;;;3.49;63.37;102310.03;675352;29;933;-79
2022/02/28 01:01:01;;;;;;;6.67;4.00;;;;;;;3.49;63.67;102322.97;675102;29;1515;-79
2022/02/28 01:01:24;;;;;;;7.90;4.47;;;;;;;3.47;64.38;102355.63;678515;29;1258;-79
2022/02/28 01:01:45;;;;;;;7.10;4.20;;;;;;;3.38;64.81;102320.72;675054;29;1398;-79
2022/02/28 01:02:06;;;;;;;6.80;4.20;;;;;;;3.36;64.80;102330.09;678415;29;2093;-79
2022/02/28 01:02:26;;;;;;;7.18;4.22;;;;;;;3.46;63.17;102331.47;675567;29;3774;-79
2022/02/28 01:02:47;;;;;;;7.30;4.50;;;;;;;3.46;63.83;102317.66;675979;29;1945;-80
2022/02/28 01:03:08;;;;;;;8.25;4.68;;;;;;;3.51;63.64;102323.94;674615;29;4379;-79
2022/02/28 01:03:29;;;;;;;7.40;4.18;;;;;;;3.48;63.27;102324.66;676504;29;1248;-79
2022/02/28 01:03:50;;;;;;;7.87;4.20;;;;;;;3.41;63.57;102315.72;676712;29;912;-79
2022/02/28 01:04:14;;;;;;;7.60;4.20;;;;;;;3.43;64.12;102309.75;675236;29;1399;-79
2022/02/28 01:04:34;;;;;;;7.22;4.20;;;;;;;3.38;63.72;102328.50;679302;29;1291;-79
2022/02/28 01:04:55;;;;;;;7.30;4.33;;;;;;;3.45;64.08;102315.84;680245;29;1434;-78
2022/02/28 01:05:18;;;;;;;7.43;4.38;;;;;;;3.46;63.34;102310.78;680117;29;1101;-79
2022/02/28 01:05:39;;;;;;;7.57;4.35;;;;;;;3.40;63.73;102313.94;673501;29;1385;-79
2022/02/28 01:05:59;;;;;;;7.38;4.38;;;;;;;3.44;63.90;102312.41;675243;29;2485;-79
2022/02/28 01:06:20;;;;;;;6.60;3.90;;;;;;;3.44;63.63;102304.63;674614;29;4305;-79
2022/02/28 01:06:49;;;;;;;7.88;4.05;;;;;;;3.45;63.64;102333.97;675101;29;1666;-79
2022/02/28 01:07:10;;;;;;;8.63;4.40;;;;;;;3.47;63.85;102338.41;675360;29;1515;-80
2022/02/28 01:07:31;;;;;;;8.10;4.28;;;;;;;3.56;63.04;102325.06;679299;29;1155;-80
2022/02/28 01:07:52;;;;;;;7.90;4.20;;;;;;;3.50;64.32;102329.91;676531;29;1030;-80
2022/02/28 01:08:13;;;;;;;7.13;4.00;;;;;;;3.48;63.84;102308.28;675697;29;1331;-79
2022/02/28 01:08:34;;;;;;;6.65;4.18;;;;;;;3.41;63.98;102318.28;675532;29;1303;-80
2022/02/28 01:08:57;;;;;;;6.63;4.20;;;;;;;3.35;64.30;102330.94;676539;29;1452;-79
2022/02/28 01:09:21;;;;;;;7.07;4.30;;;;;;;3.35;64.74;102306.75;670947;29;4499;-80
2022/02/28 01:09:41;;;;;;;6.83;4.30;;;;;;;3.46;63.38;102312.47;677092;29;3993;-80
2022/02/28 01:10:07;;;;;;;7.63;4.18;;;;;;;3.47;63.82;102314.25;677729;29;1309;-81
2022/02/28 01:10:30;;;;;;;6.60;4.10;;;;;;;3.53;63.31;102322.31;677928;29;1479;-79
2022/02/28 01:10:52;;;;;;;7.63;4.20;;;;;;;3.52;63.84;102307.63;675630;29;1515;-79
2022/02/28 01:11:20;;;;;;;7.68;4.10;;;;;;;3.46;64.29;102309.88;676270;29;1456;-80
2022/02/28 01:11:41;;;;;;;7.50;4.30;;;;;;;3.44;64.27;102342.53;674432;29;1605;-80
2022/02/28 01:12:04;;;;;;;7.50;4.50;;;;;;;3.45;63.30;102331.38;672763;29;1872;-80
2022/02/28 01:12:27;;;;;;;6.53;3.90;;;;;;;3.43;63.61;102330.41;671311;29;4602;-79
2022/02/28 01:12:52;;;;;;;8.80;4.43;;;;;;;3.40;64.35;102351.84;675098;29;1534;-80
2022/02/28 01:13:19;;;;;;;8.00;4.40;;;;;;;3.39;63.28;102335.44;677094;29;3345;-80
2022/02/28 01:13:40;;;;;;;6.70;4.25;;;;;;;3.46;63.95;102327.97;674727;29;1281;-80
2022/02/28 01:14:13;;;;;;;6.65;4.15;;;;;;;3.40;64.72;102336.31;673460;29;1562;-80
2022/02/28 01:14:35;;;;;;;7.13;4.38;;;;;;;3.40;63.92;102310.47;674122;29;1983;-80
2022/02/28 01:14:56;;;;;;;7.53;4.25;;;;;;;3.45;63.76;102315.84;673456;29;1930;-81
2022/02/28 01:15:18;;;;;;;7.65;4.20;;;;;;;3.37;64.22;102318.94;675011;29;4329;-80
2022/02/28 01:15:40;;;;;;;7.68;4.35;;;;;;;3.32;64.73;102316.94;672422;29;1263;-81
2022/02/28 01:16:01;;;;;;;6.85;4.60;;;;;;;3.21;65.01;102312.13;674726;29;1352;-79
2022/02/28 01:16:22;;;;;;;5.68;3.92;;;;;;;3.28;64.40;102330.50;675361;29;1301;-80
2022/02/28 01:16:45;;;;;;;5.90;3.90;;;;;;;3.29;64.80;102301.28;672511;29;3391;-80
2022/02/28 01:17:06;;;;;;;6.53;4.30;;;;;;;3.34;63.87;102333.44;673437;29;1107;-79
2022/02/28 01:17:27;;;;;;;6.63;3.90;;;;;;;3.41;63.10;102328.63;672705;29;3957;-79
2022/02/28 01:17:50;;;;;;;6.33;4.10;;;;;;;3.43;62.66;102331.28;671176;29;2079;-79
2022/02/28 01:18:16;;;;;;;6.85;4.07;;;;;;;3.60;62.38;102314.06;670328;29;4340;-80
2022/02/28 01:18:40;;;;;;;6.95;4.25;;;;;;;3.57;62.93;102313.91;671422;29;1413;-79
2022/02/28 01:19:03;;;;;;;7.38;4.05;;;;;;;3.52;63.99;102330.91;675130;29;1250;-80
2022/02/28 01:19:24;;;;;;;6.38;4.10;;;;;;;3.54;63.34;102329.25;675482;29;1389;-80
2022/02/28 01:19:47;;;;;;;6.32;4.05;;;;;;;3.54;62.80;102355.13;678002;29;1000;-80
2022/02/28 01:20:08;;;;;;;6.53;4.10;;;;;;;3.48;63.93;102313.47;674486;29;1268;-80
2022/02/28 01:20:28;;;;;;;7.22;4.20;;;;;;;3.37;63.56;102306.03;676954;29;3693;-80
2022/02/28 01:20:51;;;;;;;7.22;4.35;;;;;;;3.30;65.29;102347.88;675615;29;1190;-80
2022/02/28 01:21:11;;;;;;;7.20;4.28;;;;;;;3.28;65.34;102335.69;671957;29;4336;-79
2022/02/28 01:21:32;;;;;;;8.82;4.45;;;;;;;3.31;64.83;102336.75;673877;29;1625;-80
2022/02/28 01:21:52;;;;;;;9.10;4.40;;;;;;;3.40;63.13;102318.22;672176;29;1383;-80
2022/02/28 01:22:13;;;;;;;7.95;4.20;;;;;;;3.36;63.92;102318.88;673394;29;1827;-80
2022/02/28 01:22:34;;;;;;;8.57;4.23;;;;;;;3.31;63.89;102312.56;674299;29;1245;-80
2022/02/28 01:22:54;;;;;;;7.85;4.35;;;;;;;3.44;62.98;102342.53;676487;29;1980;-80
2022/02/28 01:23:15;;;;;;;7.63;4.50;;;;;;;3.43;63.78;102357.16;676865;29;1593;-79
2022/02/28 01:23:36;;;;;;;8.15;4.43;;;;;;;3.35;63.57;102323.16;678777;29;1319;-80
2022/02/28 01:23:56;;;;;;;8.00;4.55;;;;;;;3.44;64.12;102319.28;676425;29;3803;-80
2022/02/28 01:24:17;;;;;;;7.70;4.45;;;;;;;3.52;62.46;102330.91;674325;29;4409;-80
2022/02/28 01:24:38;;;;;;;7.40;4.63;;;;;;;3.47;63.01;102320.31;676122;29;1848;-80
2022/02/28 01:24:58;;;;;;;7.80;4.65;;;;;;;3.46;63.83;102330.56;676035;29;2137;-80
2022/02/28 01:25:19;;;;;;;8.57;4.63;;;;;;;3.47;62.77;102324.59;677828;29;1898;-80
2022/02/28 01:25:40;;;;;;;7.70;4.43;;;;;;;3.48;63.22;102316.03;677800;29;1302;-80
2022/02/28 01:26:00;;;;;;;7.68;4.40;;;;;;;3.40;63.75;102306.16;679113;29;1617;-79
2022/02/28 01:26:24;;;;;;;8.30;4.25;;;;;;;3.47;63.35;102324.59;677339;29;1241;-80
2022/02/28 01:26:45;;;;;;;7.00;4.35;;;;;;;3.55;62.83;102320.72;677485;29;1510;-80
2022/02/28 01:27:07;;;;;;;7.45;4.18;;;;;;;3.51;62.70;102314.47;673321;29;4332;-79
2022/02/28 01:27:27;;;;;;;6.68;4.22;;;;;;;3.53;62.92;102340.41;676034;29;997;-79
2022/02/28 01:27:48;;;;;;;7.30;4.20;;;;;;;3.49;63.13;102326.47;675788;29;3342;-79
2022/02/28 01:28:09;;;;;;;7.40;4.30;;;;;;;3.51;63.06;102316.19;680910;28;1543;-80
2022/02/28 01:28:30;;;;;;;7.13;4.40;;;;;;;3.49;63.30;102330.72;678030;29;1605;-80
2022/02/28 01:28:50;;;;;;;7.50;4.30;;;;;;;3.44;63.22;102339.97;676525;29;1335;-80
2022/02/28 01:29:14;;;;;;;8.05;4.28;;;;;;;3.41;63.39;102307.94;670595;29;1813;-79
2022/02/28 01:29:35;;;;;;;7.45;4.20;;;;;;;3.41;63.12;102332.94;675160;29;1440;-79
2022/02/28 01:29:56;;;;;;;7.47;4.30;;;;;;;3.36;63.53;102319.75;675717;29;1532;-80
2022/02/28 01:30:16;;;;;;;7.37;4.43;;;;;;;3.33;63.70;102335.09;673092;29;4462;-79
2022/02/28 01:30:40;;;;;;;6.80;4.35;;;;;;;3.37;63.33;102313.78;671758;29;1221;-81
2022/02/28 01:31:03;;;;;;;7.22;4.22;;;;;;;3.36;63.41;102304.25;672122;29;1452;-79
2022/02/28 01:31:24;;;;;;;7.47;4.30;;;;;;;3.40;63.02;102329.44;670749;29;3955;-80
2022/02/28 01:31:44;;;;;;;6.53;4.10;;;;;;;3.38;63.76;102299.16;676532;29;2051;-79
2022/02/28 01:32:05;;;;;;;6.43;4.13;;;;;;;3.38;63.60;102310.38;677465;29;1665;-80
2022/02/28 01:32:26;;;;;;;6.70;4.03;;;;;;;3.38;64.15;102319.84;677595;29;2130;-80
2022/02/28 01:32:47;;;;;;;7.28;4.03;;;;;;;3.34;63.37;102308.47;678915;29;1384;-79
2022/02/28 01:33:08;;;;;;;6.85;4.00;;;;;;;3.30;63.34;102324.63;675134;29;4337;-80
2022/02/28 01:33:29;;;;;;;6.38;4.10;;;;;;;3.38;62.93;102356.94;673424;29;1616;-80
2022/02/28 01:33:52;;;;;;;7.03;4.07;;;;;;;3.39;62.98;102314.75;673072;29;1255;-80
2022/02/28 01:34:16;;;;;;;7.85;4.10;;;;;;;3.38;63.55;102310.38;674947;29;1860;-79
2022/02/28 01:34:36;;;;;;;7.37;4.23;;;;;;;3.37;64.13;102311.19;678566;29;1659;-80
2022/02/28 01:34:59;;;;;;;6.82;4.18;;;;;;;3.46;62.82;102307.31;681214;28;2808;-80
2022/02/28 01:35:20;;;;;;;6.65;4.10;;;;;;;3.40;64.02;102337.19;678695;28;3381;-80
2022/02/28 01:35:43;;;;;;;6.82;4.38;;;;;;;3.36;63.74;102304.25;679669;29;1570;-79
2022/02/28 01:36:04;;;;;;;6.63;4.20;;;;;;;3.38;63.76;102315.56;675762;29;4342;-79
2022/02/28 01:36:25;;;;;;;7.53;4.35;;;;;;;3.38;63.67;102317.28;675604;29;1289;-81
2022/02/28 01:36:49;;;;;;;7.38;4.18;;;;;;;3.41;62.62;102307.94;673187;29;1232;-79
2022/02/28 01:37:09;;;;;;;7.68;4.30;;;;;;;3.50;62.80;102306.66;675178;29;1717;-80
2022/02/28 01:37:30;;;;;;;7.25;4.20;;;;;;;3.52;63.00;102331.78;674354;29;1195;-78
2022/02/28 01:37:51;;;;;;;7.77;4.20;;;;;;;3.48;63.25;102313.47;675658;29;1238;-80
2022/02/28 01:38:11;;;;;;;7.50;4.30;;;;;;;3.44;63.05;102307.22;674440;29;1365;-80
2022/02/28 01:38:33;;;;;;;7.75;4.30;;;;;;;3.37;63.04;102315.50;671333;29;2510;-79
2022/02/28 01:38:57;;;;;;;7.55;4.15;;;;;;;3.37;63.46;102318.94;675748;29;4156;-80
2022/02/28 01:39:20;;;;;;;7.38;4.07;;;;;;;3.36;63.58;102312.00;674640;29;4333;-78
2022/02/28 01:39:44;;;;;;;7.28;4.57;;;;;;;3.39;63.70;102322.50;676202;29;1837;-79
2022/02/28 01:40:06;;;;;;;7.55;4.40;;;;;;;3.40;62.91;102325.97;673834;29;1469;-80
2022/02/28 01:40:30;;;;;;;7.65;4.22;;;;;;;3.39;63.62;102309.59;672765;29;1856;-80
2022/02/28 01:40:56;;;;;;;6.97;4.22;;;;;;;3.40;63.21;102319.09;675649;29;1393;-79
2022/02/28 01:41:17;;;;;;;7.75;4.50;;;;;;;3.46;63.06;102335.75;680129;29;1368;-80
2022/02/28 01:41:38;;;;;;;7.75;4.25;;;;;;;3.51;62.27;102327.41;676287;29;1193;-79
2022/02/28 01:41:58;;;;;;;7.80;4.50;;;;;;;3.49;62.48;102302.28;673333;29;1719;-81
2022/02/28 01:42:19;;;;;;;7.93;4.10;;;;;;;3.52;63.04;102330.91;673114;29;4398;-79
2022/02/28 01:42:42;;;;;;;7.53;4.20;;;;;;;3.51;62.38;102332.56;675232;29;1962;-80
2022/02/28 01:43:10;;;;;;;7.15;4.18;;;;;;;3.49;62.75;102325.53;678193;29;1807;-80
2022/02/28 01:43:31;;;;;;;7.05;4.40;;;;;;;3.44;63.46;102307.22;677838;29;1493;-80
2022/02/28 01:43:52;;;;;;;7.40;4.38;;;;;;;3.38;63.46;102320.72;675202;29;1760;-80
2022/02/28 01:44:15;;;;;;;7.15;4.15;;;;;;;3.38;63.50;102309.50;678794;29;1403;-80
2022/02/28 01:44:35;;;;;;;7.20;4.37;;;;;;;3.45;62.79;102308.09;676682;29;1151;-80
2022/02/28 01:44:56;;;;;;;6.80;4.40;;;;;;;3.47;62.20;102328.06;678018;29;1242;-80
2022/02/28 01:45:22;;;;;;;7.15;4.28;;;;;;;3.50;63.19;102311.81;678790;29;4316;-79
2022/02/28 01:45:43;;;;;;;8.10;4.12;;;;;;;3.43;62.41;102335.59;679951;29;3267;-80